sensor_id;sensor_type;location;lat;lon;timestamp;P1;durP1;ratioP1;P2;durP2;ratioP2
32734;SDS011;19112;51.076;3.706;2023-02-04T00:01:24;19.60;;;5.70;;
32734;SDS011;19112;51.076;3.706;2023-02-04T00:03:50;23.15;;;6.05;;
32734;SDS011;19112;51.076;3.706;2023-02-04T00:06:16;16.58;;;5.50;;
32734;SDS011;19112;51.076;3.706;2023-02-04T00:08:42;22.35;;;5.65;;
32734;SDS011;19112;51.076;3.706;2023-02-04T00:11:08;17.85;;;5.47;;
32734;SDS011;19112;51.076;3.706;2023-02-04T00:13:34;18.77;;;5.63;;
32734;SDS011;19112;51.076;3.706;2023-02-04T00:15:59;17.58;;;5.05;;
32734;SDS011;19112;51.076;3.706;2023-02-04T00:18:25;17.70;;;5.20;;
32734;SDS011;19112;51.076;3.706;2023-02-04T00:20:52;18.67;;;5.80;;
32734;SDS011;19112;51.076;3.706;2023-02-04T00:23:18;15.18;;;4.07;;
32734;SDS011;19112;51.076;3.706;2023-02-04T00:25:44;17.95;;;5.78;;
32734;SDS011;19112;51.076;3.706;2023-02-04T00:28:10;14.65;;;4.00;;
32734;SDS011;19112;51.076;3.706;2023-02-04T00:30:36;11.18;;;3.63;;
32734;SDS011;19112;51.076;3.706;2023-02-04T00:33:02;11.15;;;3.95;;
32734;SDS011;19112;51.076;3.706;2023-02-04T00:35:27;11.98;;;3.53;;
32734;SDS011;19112;51.076;3.706;2023-02-04T00:37:53;18.33;;;4.45;;
32734;SDS011;19112;51.076;3.706;2023-02-04T00:40:19;14.40;;;4.10;;
32734;SDS011;19112;51.076;3.706;2023-02-04T00:42:45;14.35;;;4.20;;
32734;SDS011;19112;51.076;3.706;2023-02-04T00:45:11;14.90;;;4.78;;
32734;SDS011;19112;51.076;3.706;2023-02-04T00:47:37;11.70;;;3.90;;
32734;SDS011;19112;51.076;3.706;2023-02-04T00:50:03;15.95;;;4.82;;
32734;SDS011;19112;51.076;3.706;2023-02-04T00:52:30;14.23;;;4.97;;
32734;SDS011;19112;51.076;3.706;2023-02-04T00:54:56;14.93;;;4.30;;
32734;SDS011;19112;51.076;3.706;2023-02-04T00:57:21;16.67;;;4.55;;
32734;SDS011;19112;51.076;3.706;2023-02-04T00:59:47;12.90;;;3.97;;
32734;SDS011;19112;51.076;3.706;2023-02-04T01:02:13;16.10;;;4.40;;
32734;SDS011;19112;51.076;3.706;2023-02-04T01:04:39;16.88;;;4.63;;
32734;SDS011;19112;51.076;3.706;2023-02-04T01:07:04;16.55;;;4.57;;
32734;SDS011;19112;51.076;3.706;2023-02-04T01:09:30;14.13;;;4.22;;
32734;SDS011;19112;51.076;3.706;2023-02-04T01:11:56;16.73;;;4.18;;
32734;SDS011;19112;51.076;3.706;2023-02-04T01:14:22;14.63;;;5.13;;
32734;SDS011;19112;51.076;3.706;2023-02-04T01:16:48;19.23;;;4.68;;
32734;SDS011;19112;51.076;3.706;2023-02-04T01:19:14;15.23;;;5.13;;
32734;SDS011;19112;51.076;3.706;2023-02-04T01:21:39;16.85;;;5.10;;
32734;SDS011;19112;51.076;3.706;2023-02-04T01:24:05;18.70;;;4.78;;
32734;SDS011;19112;51.076;3.706;2023-02-04T01:26:31;18.35;;;5.18;;
32734;SDS011;19112;51.076;3.706;2023-02-04T01:28:57;19.55;;;5.10;;
32734;SDS011;19112;51.076;3.706;2023-02-04T01:31:22;19.23;;;5.75;;
32734;SDS011;19112;51.076;3.706;2023-02-04T01:33:48;16.85;;;5.50;;
32734;SDS011;19112;51.076;3.706;2023-02-04T01:36:14;18.23;;;5.25;;
32734;SDS011;19112;51.076;3.706;2023-02-04T01:38:46;21.60;;;6.10;;
32734;SDS011;19112;51.076;3.706;2023-02-04T01:41:13;18.95;;;6.68;;
32734;SDS011;19112;51.076;3.706;2023-02-04T01:43:40;21.77;;;5.93;;
32734;SDS011;19112;51.076;3.706;2023-02-04T01:46:06;17.58;;;6.00;;
32734;SDS011;19112;51.076;3.706;2023-02-04T01:48:32;18.05;;;6.40;;
32734;SDS011;19112;51.076;3.706;2023-02-04T01:51:05;22.88;;;6.90;;
32734;SDS011;19112;51.076;3.706;2023-02-04T01:53:35;20.58;;;7.10;;
32734;SDS011;19112;51.076;3.706;2023-02-04T01:56:10;19.17;;;7.22;;
32734;SDS011;19112;51.076;3.706;2023-02-04T01:58:50;17.67;;;6.45;;
32734;SDS011;19112;51.076;3.706;2023-02-04T02:01:33;21.60;;;7.45;;
32734;SDS011;19112;51.076;3.706;2023-02-04T02:04:05;17.42;;;7.07;;
32734;SDS011;19112;51.076;3.706;2023-02-04T02:06:34;24.70;;;8.13;;
32734;SDS011;19112;51.076;3.706;2023-02-04T02:09:02;22.02;;;8.48;;
32734;SDS011;19112;51.076;3.706;2023-02-04T02:11:28;23.25;;;7.97;;
32734;SDS011;19112;51.076;3.706;2023-02-04T02:13:54;23.65;;;7.93;;
32734;SDS011;19112;51.076;3.706;2023-02-04T02:16:20;24.08;;;7.53;;
32734;SDS011;19112;51.076;3.706;2023-02-04T02:18:46;22.55;;;7.88;;
32734;SDS011;19112;51.076;3.706;2023-02-04T02:21:13;29.02;;;7.70;;
32734;SDS011;19112;51.076;3.706;2023-02-04T02:26:21;20.70;;;7.80;;
32734;SDS011;19112;51.076;3.706;2023-02-04T02:28:48;21.80;;;7.93;;
32734;SDS011;19112;51.076;3.706;2023-02-04T02:31:16;24.75;;;8.60;;
32734;SDS011;19112;51.076;3.706;2023-02-04T02:33:45;31.73;;;7.60;;
32734;SDS011;19112;51.076;3.706;2023-02-04T02:36:11;28.33;;;7.13;;
32734;SDS011;19112;51.076;3.706;2023-02-04T02:38:38;21.38;;;7.32;;
32734;SDS011;19112;51.076;3.706;2023-02-04T02:41:05;19.67;;;6.65;;
32734;SDS011;19112;51.076;3.706;2023-02-04T02:43:34;23.55;;;6.93;;
32734;SDS011;19112;51.076;3.706;2023-02-04T02:46:01;26.92;;;8.90;;
32734;SDS011;19112;51.076;3.706;2023-02-04T02:48:27;21.60;;;7.60;;
32734;SDS011;19112;51.076;3.706;2023-02-04T02:50:53;24.02;;;7.35;;
32734;SDS011;19112;51.076;3.706;2023-02-04T02:53:20;27.85;;;7.50;;
32734;SDS011;19112;51.076;3.706;2023-02-04T02:55:46;24.33;;;8.70;;
32734;SDS011;19112;51.076;3.706;2023-02-04T02:58:17;26.42;;;8.18;;
32734;SDS011;19112;51.076;3.706;2023-02-04T03:00:50;20.05;;;7.38;;
32734;SDS011;19112;51.076;3.706;2023-02-04T03:03:17;26.77;;;7.88;;
32734;SDS011;19112;51.076;3.706;2023-02-04T03:05:54;25.20;;;9.52;;
32734;SDS011;19112;51.076;3.706;2023-02-04T03:08:34;26.05;;;8.07;;
32734;SDS011;19112;51.076;3.706;2023-02-04T03:11:01;23.63;;;8.43;;
32734;SDS011;19112;51.076;3.706;2023-02-04T03:13:26;24.77;;;8.65;;
32734;SDS011;19112;51.076;3.706;2023-02-04T03:15:53;29.77;;;9.10;;
32734;SDS011;19112;51.076;3.706;2023-02-04T03:18:19;24.75;;;9.68;;
32734;SDS011;19112;51.076;3.706;2023-02-04T03:20:46;23.92;;;9.63;;
32734;SDS011;19112;51.076;3.706;2023-02-04T03:23:14;22.85;;;8.95;;
32734;SDS011;19112;51.076;3.706;2023-02-04T03:25:40;24.15;;;9.85;;
32734;SDS011;19112;51.076;3.706;2023-02-04T03:28:06;29.38;;;10.25;;
32734;SDS011;19112;51.076;3.706;2023-02-04T03:30:32;27.83;;;10.18;;
32734;SDS011;19112;51.076;3.706;2023-02-04T03:32:58;27.08;;;10.35;;
32734;SDS011;19112;51.076;3.706;2023-02-04T03:35:24;29.70;;;11.57;;
32734;SDS011;19112;51.076;3.706;2023-02-04T03:37:50;28.10;;;11.70;;
32734;SDS011;19112;51.076;3.706;2023-02-04T03:40:16;26.35;;;11.60;;
32734;SDS011;19112;51.076;3.706;2023-02-04T03:42:42;26.83;;;11.52;;
32734;SDS011;19112;51.076;3.706;2023-02-04T03:45:08;25.27;;;11.15;;
32734;SDS011;19112;51.076;3.706;2023-02-04T03:47:34;30.00;;;12.65;;
32734;SDS011;19112;51.076;3.706;2023-02-04T03:50:00;31.00;;;13.10;;
32734;SDS011;19112;51.076;3.706;2023-02-04T03:52:26;32.00;;;12.43;;
32734;SDS011;19112;51.076;3.706;2023-02-04T03:54:52;30.23;;;13.60;;
32734;SDS011;19112;51.076;3.706;2023-02-04T03:57:18;28.50;;;11.70;;
32734;SDS011;19112;51.076;3.706;2023-02-04T03:59:43;30.35;;;13.50;;
32734;SDS011;19112;51.076;3.706;2023-02-04T04:02:09;77.30;;;22.52;;
32734;SDS011;19112;51.076;3.706;2023-02-04T04:04:35;32.90;;;13.07;;
32734;SDS011;19112;51.076;3.706;2023-02-04T04:07:01;30.58;;;12.25;;
32734;SDS011;19112;51.076;3.706;2023-02-04T04:09:27;25.58;;;12.32;;
32734;SDS011;19112;51.076;3.706;2023-02-04T04:11:53;33.10;;;13.43;;
32734;SDS011;19112;51.076;3.706;2023-02-04T04:14:19;29.60;;;12.75;;
32734;SDS011;19112;51.076;3.706;2023-02-04T04:16:45;28.88;;;12.68;;
32734;SDS011;19112;51.076;3.706;2023-02-04T04:19:11;29.15;;;12.10;;
32734;SDS011;19112;51.076;3.706;2023-02-04T04:21:36;27.15;;;12.63;;
32734;SDS011;19112;51.076;3.706;2023-02-04T04:24:02;29.75;;;13.82;;
32734;SDS011;19112;51.076;3.706;2023-02-04T04:26:28;153.23;;;60.75;;
32734;SDS011;19112;51.076;3.706;2023-02-04T04:28:54;29.10;;;13.80;;
32734;SDS011;19112;51.076;3.706;2023-02-04T04:31:20;28.50;;;13.95;;
32734;SDS011;19112;51.076;3.706;2023-02-04T04:33:46;26.60;;;13.73;;
32734;SDS011;19112;51.076;3.706;2023-02-04T04:36:11;30.08;;;13.80;;
32734;SDS011;19112;51.076;3.706;2023-02-04T04:38:38;30.85;;;14.88;;
32734;SDS011;19112;51.076;3.706;2023-02-04T04:41:04;30.35;;;13.70;;
32734;SDS011;19112;51.076;3.706;2023-02-04T04:43:30;31.55;;;15.00;;
32734;SDS011;19112;51.076;3.706;2023-02-04T04:45:56;29.73;;;14.35;;
32734;SDS011;19112;51.076;3.706;2023-02-04T04:48:22;31.35;;;14.43;;
32734;SDS011;19112;51.076;3.706;2023-02-04T04:50:49;31.95;;;14.00;;
32734;SDS011;19112;51.076;3.706;2023-02-04T04:53:15;33.47;;;15.85;;
32734;SDS011;19112;51.076;3.706;2023-02-04T04:55:40;33.10;;;15.15;;
32734;SDS011;19112;51.076;3.706;2023-02-04T04:58:06;34.75;;;15.52;;
32734;SDS011;19112;51.076;3.706;2023-02-04T05:00:33;35.85;;;16.17;;
32734;SDS011;19112;51.076;3.706;2023-02-04T05:02:59;31.27;;;15.07;;
32734;SDS011;19112;51.076;3.706;2023-02-04T05:05:25;31.20;;;15.55;;
32734;SDS011;19112;51.076;3.706;2023-02-04T05:07:51;32.83;;;16.13;;
32734;SDS011;19112;51.076;3.706;2023-02-04T05:10:17;31.73;;;14.88;;
32734;SDS011;19112;51.076;3.706;2023-02-04T05:12:44;31.15;;;16.33;;
32734;SDS011;19112;51.076;3.706;2023-02-04T05:15:10;32.22;;;16.40;;
32734;SDS011;19112;51.076;3.706;2023-02-04T05:17:36;34.72;;;16.85;;
32734;SDS011;19112;51.076;3.706;2023-02-04T05:20:02;33.10;;;15.38;;
32734;SDS011;19112;51.076;3.706;2023-02-04T05:22:28;35.25;;;16.20;;
32734;SDS011;19112;51.076;3.706;2023-02-04T05:24:54;36.20;;;17.33;;
32734;SDS011;19112;51.076;3.706;2023-02-04T05:27:20;35.72;;;18.10;;
32734;SDS011;19112;51.076;3.706;2023-02-04T05:29:46;34.28;;;17.00;;
32734;SDS011;19112;51.076;3.706;2023-02-04T05:32:11;40.38;;;17.17;;
32734;SDS011;19112;51.076;3.706;2023-02-04T05:34:37;33.67;;;16.27;;
32734;SDS011;19112;51.076;3.706;2023-02-04T05:37:03;34.70;;;16.90;;
32734;SDS011;19112;51.076;3.706;2023-02-04T05:39:29;35.92;;;16.73;;
32734;SDS011;19112;51.076;3.706;2023-02-04T05:41:55;39.05;;;18.67;;
32734;SDS011;19112;51.076;3.706;2023-02-04T05:44:20;39.22;;;18.13;;
32734;SDS011;19112;51.076;3.706;2023-02-04T05:46:46;38.90;;;18.90;;
32734;SDS011;19112;51.076;3.706;2023-02-04T05:49:12;37.67;;;16.98;;
32734;SDS011;19112;51.076;3.706;2023-02-04T05:51:38;34.53;;;16.73;;
32734;SDS011;19112;51.076;3.706;2023-02-04T05:54:04;42.80;;;18.90;;
32734;SDS011;19112;51.076;3.706;2023-02-04T05:56:30;40.13;;;18.38;;
32734;SDS011;19112;51.076;3.706;2023-02-04T05:58:56;39.33;;;17.77;;
32734;SDS011;19112;51.076;3.706;2023-02-04T06:01:22;40.28;;;18.98;;
32734;SDS011;19112;51.076;3.706;2023-02-04T06:03:48;40.83;;;18.67;;
32734;SDS011;19112;51.076;3.706;2023-02-04T06:06:14;36.08;;;17.92;;
32734;SDS011;19112;51.076;3.706;2023-02-04T06:08:39;41.00;;;17.67;;
32734;SDS011;19112;51.076;3.706;2023-02-04T06:11:05;38.25;;;15.82;;
32734;SDS011;19112;51.076;3.706;2023-02-04T06:13:31;35.95;;;16.77;;
32734;SDS011;19112;51.076;3.706;2023-02-04T06:15:57;35.28;;;17.30;;
32734;SDS011;19112;51.076;3.706;2023-02-04T06:18:23;39.63;;;17.08;;
32734;SDS011;19112;51.076;3.706;2023-02-04T06:20:48;40.47;;;17.85;;
32734;SDS011;19112;51.076;3.706;2023-02-04T06:23:14;38.78;;;17.10;;
32734;SDS011;19112;51.076;3.706;2023-02-04T06:25:40;41.08;;;17.60;;
32734;SDS011;19112;51.076;3.706;2023-02-04T06:28:06;42.28;;;16.95;;
32734;SDS011;19112;51.076;3.706;2023-02-04T06:30:32;39.80;;;17.65;;
32734;SDS011;19112;51.076;3.706;2023-02-04T06:32:58;40.78;;;16.95;;
32734;SDS011;19112;51.076;3.706;2023-02-04T06:35:24;43.03;;;17.63;;
32734;SDS011;19112;51.076;3.706;2023-02-04T06:37:50;41.90;;;17.50;;
32734;SDS011;19112;51.076;3.706;2023-02-04T06:40:16;43.00;;;18.23;;
32734;SDS011;19112;51.076;3.706;2023-02-04T06:42:42;45.95;;;18.30;;
32734;SDS011;19112;51.076;3.706;2023-02-04T06:45:08;40.55;;;17.88;;
32734;SDS011;19112;51.076;3.706;2023-02-04T06:47:34;44.15;;;17.33;;
32734;SDS011;19112;51.076;3.706;2023-02-04T06:49:59;44.47;;;17.23;;
32734;SDS011;19112;51.076;3.706;2023-02-04T06:52:25;42.63;;;17.20;;
32734;SDS011;19112;51.076;3.706;2023-02-04T06:54:51;42.42;;;17.13;;
32734;SDS011;19112;51.076;3.706;2023-02-04T06:57:17;48.53;;;19.60;;
32734;SDS011;19112;51.076;3.706;2023-02-04T06:59:43;45.60;;;18.52;;
32734;SDS011;19112;51.076;3.706;2023-02-04T07:02:09;47.50;;;19.02;;
32734;SDS011;19112;51.076;3.706;2023-02-04T07:04:36;45.28;;;19.70;;
32734;SDS011;19112;51.076;3.706;2023-02-04T07:07:02;43.03;;;17.75;;
32734;SDS011;19112;51.076;3.706;2023-02-04T07:09:28;41.80;;;17.25;;
32734;SDS011;19112;51.076;3.706;2023-02-04T07:11:54;46.95;;;17.77;;
32734;SDS011;19112;51.076;3.706;2023-02-04T07:14:20;38.13;;;17.00;;
32734;SDS011;19112;51.076;3.706;2023-02-04T07:16:45;38.17;;;15.27;;
32734;SDS011;19112;51.076;3.706;2023-02-04T07:19:11;40.08;;;17.30;;
32734;SDS011;19112;51.076;3.706;2023-02-04T07:21:37;37.85;;;16.65;;
32734;SDS011;19112;51.076;3.706;2023-02-04T07:24:03;38.72;;;17.17;;
32734;SDS011;19112;51.076;3.706;2023-02-04T07:26:29;38.78;;;16.15;;
32734;SDS011;19112;51.076;3.706;2023-02-04T07:28:55;39.80;;;14.88;;
32734;SDS011;19112;51.076;3.706;2023-02-04T07:31:20;45.70;;;15.85;;
32734;SDS011;19112;51.076;3.706;2023-02-04T07:33:46;42.60;;;14.95;;
32734;SDS011;19112;51.076;3.706;2023-02-04T07:36:12;35.63;;;12.57;;
32734;SDS011;19112;51.076;3.706;2023-02-04T07:38:38;38.13;;;15.50;;
32734;SDS011;19112;51.076;3.706;2023-02-04T07:41:04;47.45;;;15.32;;
32734;SDS011;19112;51.076;3.706;2023-02-04T07:43:29;37.60;;;13.70;;
32734;SDS011;19112;51.076;3.706;2023-02-04T07:45:55;41.33;;;14.98;;
32734;SDS011;19112;51.076;3.706;2023-02-04T07:48:22;35.80;;;14.60;;
32734;SDS011;19112;51.076;3.706;2023-02-04T07:50:48;36.58;;;14.77;;
32734;SDS011;19112;51.076;3.706;2023-02-04T07:53:14;41.95;;;14.93;;
32734;SDS011;19112;51.076;3.706;2023-02-04T07:55:39;48.10;;;15.90;;
32734;SDS011;19112;51.076;3.706;2023-02-04T07:58:05;39.42;;;15.02;;
32734;SDS011;19112;51.076;3.706;2023-02-04T08:00:31;37.38;;;14.73;;
32734;SDS011;19112;51.076;3.706;2023-02-04T08:02:58;34.20;;;13.80;;
32734;SDS011;19112;51.076;3.706;2023-02-04T08:05:23;38.03;;;13.32;;
32734;SDS011;19112;51.076;3.706;2023-02-04T08:07:49;46.72;;;13.75;;
32734;SDS011;19112;51.076;3.706;2023-02-04T08:10:15;40.28;;;13.70;;
32734;SDS011;19112;51.076;3.706;2023-02-04T08:12:41;34.33;;;13.27;;
32734;SDS011;19112;51.076;3.706;2023-02-04T08:15:07;37.72;;;13.98;;
32734;SDS011;19112;51.076;3.706;2023-02-04T08:17:33;35.85;;;14.02;;
32734;SDS011;19112;51.076;3.706;2023-02-04T08:20:00;34.83;;;13.60;;
32734;SDS011;19112;51.076;3.706;2023-02-04T08:22:26;34.75;;;13.35;;
32734;SDS011;19112;51.076;3.706;2023-02-04T08:24:51;34.20;;;13.52;;
32734;SDS011;19112;51.076;3.706;2023-02-04T08:27:17;35.67;;;14.30;;
32734;SDS011;19112;51.076;3.706;2023-02-04T08:29:43;49.38;;;14.27;;
32734;SDS011;19112;51.076;3.706;2023-02-04T08:32:09;34.63;;;13.77;;
32734;SDS011;19112;51.076;3.706;2023-02-04T08:34:37;32.67;;;12.68;;
32734;SDS011;19112;51.076;3.706;2023-02-04T08:37:04;34.95;;;13.68;;
32734;SDS011;19112;51.076;3.706;2023-02-04T08:39:29;31.80;;;12.95;;
32734;SDS011;19112;51.076;3.706;2023-02-04T08:41:56;41.70;;;15.25;;
32734;SDS011;19112;51.076;3.706;2023-02-04T08:44:23;37.67;;;16.98;;
32734;SDS011;19112;51.076;3.706;2023-02-04T08:46:49;37.10;;;15.05;;
32734;SDS011;19112;51.076;3.706;2023-02-04T08:49:14;34.00;;;14.07;;
32734;SDS011;19112;51.076;3.706;2023-02-04T08:51:40;34.47;;;13.35;;
32734;SDS011;19112;51.076;3.706;2023-02-04T08:54:06;32.30;;;13.00;;
32734;SDS011;19112;51.076;3.706;2023-02-04T08:56:32;28.85;;;12.25;;
32734;SDS011;19112;51.076;3.706;2023-02-04T08:58:59;38.08;;;13.55;;
32734;SDS011;19112;51.076;3.706;2023-02-04T09:01:25;31.90;;;12.45;;
32734;SDS011;19112;51.076;3.706;2023-02-04T09:03:51;34.85;;;12.35;;
32734;SDS011;19112;51.076;3.706;2023-02-04T09:06:17;30.55;;;12.57;;
32734;SDS011;19112;51.076;3.706;2023-02-04T09:08:43;34.28;;;12.57;;
32734;SDS011;19112;51.076;3.706;2023-02-04T09:11:09;33.95;;;11.77;;
32734;SDS011;19112;51.076;3.706;2023-02-04T09:13:36;38.13;;;13.57;;
32734;SDS011;19112;51.076;3.706;2023-02-04T09:16:03;34.90;;;13.23;;
32734;SDS011;19112;51.076;3.706;2023-02-04T09:18:29;28.58;;;11.63;;
32734;SDS011;19112;51.076;3.706;2023-02-04T09:20:56;31.90;;;12.05;;
32734;SDS011;19112;51.076;3.706;2023-02-04T09:23:23;26.63;;;11.10;;
32734;SDS011;19112;51.076;3.706;2023-02-04T09:25:49;26.63;;;11.23;;
32734;SDS011;19112;51.076;3.706;2023-02-04T09:28:15;28.75;;;10.23;;
32734;SDS011;19112;51.076;3.706;2023-02-04T09:30:42;28.52;;;10.55;;
32734;SDS011;19112;51.076;3.706;2023-02-04T09:33:10;30.48;;;10.98;;
32734;SDS011;19112;51.076;3.706;2023-02-04T09:35:38;26.70;;;10.73;;
32734;SDS011;19112;51.076;3.706;2023-02-04T09:38:05;28.48;;;12.65;;
32734;SDS011;19112;51.076;3.706;2023-02-04T09:40:32;27.92;;;10.63;;
32734;SDS011;19112;51.076;3.706;2023-02-04T09:43:01;33.45;;;10.77;;
32734;SDS011;19112;51.076;3.706;2023-02-04T09:45:31;26.27;;;9.73;;
32734;SDS011;19112;51.076;3.706;2023-02-04T09:48:01;30.75;;;9.68;;
32734;SDS011;19112;51.076;3.706;2023-02-04T09:50:29;22.90;;;9.32;;
32734;SDS011;19112;51.076;3.706;2023-02-04T09:52:57;25.45;;;9.60;;
32734;SDS011;19112;51.076;3.706;2023-02-04T09:55:29;25.70;;;9.65;;
32734;SDS011;19112;51.076;3.706;2023-02-04T09:58:04;25.27;;;9.45;;
32734;SDS011;19112;51.076;3.706;2023-02-04T10:00:44;24.35;;;9.13;;
32734;SDS011;19112;51.076;3.706;2023-02-04T10:03:16;22.92;;;9.05;;
32734;SDS011;19112;51.076;3.706;2023-02-04T10:05:45;28.52;;;9.25;;
32734;SDS011;19112;51.076;3.706;2023-02-04T10:08:17;28.92;;;9.50;;
32734;SDS011;19112;51.076;3.706;2023-02-04T10:10:47;30.98;;;9.90;;
32734;SDS011;19112;51.076;3.706;2023-02-04T10:13:21;23.00;;;8.95;;
32734;SDS011;19112;51.076;3.706;2023-02-04T10:15:55;25.75;;;8.90;;
32734;SDS011;19112;51.076;3.706;2023-02-04T10:18:24;27.05;;;8.15;;
32734;SDS011;19112;51.076;3.706;2023-02-04T10:21:43;28.92;;;9.07;;
32734;SDS011;19112;51.076;3.706;2023-02-04T10:23:59;26.63;;;9.02;;
32734;SDS011;19112;51.076;3.706;2023-02-04T10:26:28;23.48;;;8.55;;
32734;SDS011;19112;51.076;3.706;2023-02-04T10:29:00;19.35;;;8.23;;
32734;SDS011;19112;51.076;3.706;2023-02-04T10:31:35;18.90;;;7.50;;
32734;SDS011;19112;51.076;3.706;2023-02-04T10:34:12;28.67;;;7.93;;
32734;SDS011;19112;51.076;3.706;2023-02-04T10:36:45;24.10;;;8.57;;
32734;SDS011;19112;51.076;3.706;2023-02-04T10:39:21;27.25;;;7.70;;
32734;SDS011;19112;51.076;3.706;2023-02-04T10:44:46;23.20;;;7.45;;
32734;SDS011;19112;51.076;3.706;2023-02-04T10:52:35;24.08;;;8.18;;
32734;SDS011;19112;51.076;3.706;2023-02-04T10:55:04;23.75;;;7.35;;
32734;SDS011;19112;51.076;3.706;2023-02-04T10:57:43;23.63;;;8.07;;
32734;SDS011;19112;51.076;3.706;2023-02-04T11:00:19;27.58;;;7.82;;
32734;SDS011;19112;51.076;3.706;2023-02-04T11:05:19;26.75;;;8.82;;
32734;SDS011;19112;51.076;3.706;2023-02-04T11:07:49;23.10;;;7.93;;
32734;SDS011;19112;51.076;3.706;2023-02-04T11:10:16;23.45;;;8.60;;
32734;SDS011;19112;51.076;3.706;2023-02-04T11:18:10;20.98;;;8.45;;
32734;SDS011;19112;51.076;3.706;2023-02-04T11:20:54;24.67;;;8.40;;
32734;SDS011;19112;51.076;3.706;2023-02-04T11:26:03;20.98;;;8.57;;
32734;SDS011;19112;51.076;3.706;2023-02-04T11:28:45;25.92;;;9.27;;
32734;SDS011;19112;51.076;3.706;2023-02-04T11:33:49;22.20;;;8.65;;
32734;SDS011;19112;51.076;3.706;2023-02-04T11:36:33;36.83;;;9.75;;
32734;SDS011;19112;51.076;3.706;2023-02-04T11:39:06;24.73;;;8.75;;
32734;SDS011;19112;51.076;3.706;2023-02-04T11:41:41;21.98;;;9.40;;
32734;SDS011;19112;51.076;3.706;2023-02-04T11:44:10;28.60;;;8.65;;
32734;SDS011;19112;51.076;3.706;2023-02-04T11:46:37;27.25;;;10.13;;
32734;SDS011;19112;51.076;3.706;2023-02-04T11:49:08;24.88;;;8.90;;
32734;SDS011;19112;51.076;3.706;2023-02-04T11:51:43;23.80;;;8.80;;
32734;SDS011;19112;51.076;3.706;2023-02-04T11:54:11;21.40;;;9.13;;
32734;SDS011;19112;51.076;3.706;2023-02-04T11:56:40;25.88;;;9.32;;
32734;SDS011;19112;51.076;3.706;2023-02-04T11:59:07;25.40;;;9.88;;
32734;SDS011;19112;51.076;3.706;2023-02-04T12:01:36;29.35;;;8.82;;
32734;SDS011;19112;51.076;3.706;2023-02-04T12:04:03;26.63;;;9.27;;
32734;SDS011;19112;51.076;3.706;2023-02-04T12:06:33;24.20;;;9.35;;
32734;SDS011;19112;51.076;3.706;2023-02-04T12:09:07;25.85;;;10.23;;
32734;SDS011;19112;51.076;3.706;2023-02-04T12:11:33;26.27;;;9.60;;
32734;SDS011;19112;51.076;3.706;2023-02-04T12:14:09;22.02;;;8.80;;
32734;SDS011;19112;51.076;3.706;2023-02-04T12:16:45;24.47;;;8.57;;
32734;SDS011;19112;51.076;3.706;2023-02-04T12:19:15;22.10;;;7.30;;
32734;SDS011;19112;51.076;3.706;2023-02-04T12:21:41;24.70;;;7.97;;
32734;SDS011;19112;51.076;3.706;2023-02-04T12:24:07;23.10;;;7.97;;
32734;SDS011;19112;51.076;3.706;2023-02-04T12:26:33;19.13;;;7.68;;
32734;SDS011;19112;51.076;3.706;2023-02-04T12:28:59;16.85;;;7.47;;
32734;SDS011;19112;51.076;3.706;2023-02-04T12:31:27;21.15;;;7.82;;
32734;SDS011;19112;51.076;3.706;2023-02-04T12:33:54;23.90;;;7.95;;
32734;SDS011;19112;51.076;3.706;2023-02-04T12:36:20;20.33;;;7.25;;
32734;SDS011;19112;51.076;3.706;2023-02-04T12:38:47;21.70;;;7.45;;
32734;SDS011;19112;51.076;3.706;2023-02-04T12:41:13;20.10;;;7.03;;
32734;SDS011;19112;51.076;3.706;2023-02-04T12:43:38;19.27;;;7.65;;
32734;SDS011;19112;51.076;3.706;2023-02-04T12:46:04;19.15;;;7.35;;
32734;SDS011;19112;51.076;3.706;2023-02-04T12:48:30;25.77;;;7.38;;
32734;SDS011;19112;51.076;3.706;2023-02-04T12:50:56;18.33;;;6.68;;
32734;SDS011;19112;51.076;3.706;2023-02-04T12:53:22;24.02;;;7.82;;
32734;SDS011;19112;51.076;3.706;2023-02-04T12:55:47;21.65;;;7.60;;
32734;SDS011;19112;51.076;3.706;2023-02-04T12:58:13;23.90;;;7.85;;
32734;SDS011;19112;51.076;3.706;2023-02-04T13:00:39;25.67;;;7.80;;
32734;SDS011;19112;51.076;3.706;2023-02-04T13:03:06;21.85;;;8.27;;
32734;SDS011;19112;51.076;3.706;2023-02-04T13:05:32;23.95;;;7.82;;
32734;SDS011;19112;51.076;3.706;2023-02-04T13:08:00;22.80;;;8.02;;
32734;SDS011;19112;51.076;3.706;2023-02-04T13:10:26;19.70;;;7.13;;
32734;SDS011;19112;51.076;3.706;2023-02-04T13:12:52;20.00;;;7.25;;
32734;SDS011;19112;51.076;3.706;2023-02-04T13:15:17;18.10;;;7.47;;
32734;SDS011;19112;51.076;3.706;2023-02-04T13:17:43;19.40;;;7.35;;
32734;SDS011;19112;51.076;3.706;2023-02-04T13:20:09;21.17;;;7.10;;
32734;SDS011;19112;51.076;3.706;2023-02-04T13:22:36;26.50;;;7.68;;
32734;SDS011;19112;51.076;3.706;2023-02-04T13:25:02;21.38;;;7.75;;
32734;SDS011;19112;51.076;3.706;2023-02-04T13:27:29;23.13;;;7.53;;
32734;SDS011;19112;51.076;3.706;2023-02-04T13:29:56;19.10;;;6.90;;
32734;SDS011;19112;51.076;3.706;2023-02-04T13:32:22;20.45;;;6.82;;
32734;SDS011;19112;51.076;3.706;2023-02-04T13:34:48;27.45;;;6.93;;
32734;SDS011;19112;51.076;3.706;2023-02-04T13:37:14;18.63;;;7.00;;
32734;SDS011;19112;51.076;3.706;2023-02-04T13:39:40;24.20;;;7.53;;
32734;SDS011;19112;51.076;3.706;2023-02-04T13:42:06;22.00;;;7.32;;
32734;SDS011;19112;51.076;3.706;2023-02-04T13:44:31;24.42;;;7.93;;
32734;SDS011;19112;51.076;3.706;2023-02-04T13:46:57;19.17;;;6.78;;
32734;SDS011;19112;51.076;3.706;2023-02-04T13:49:23;20.02;;;6.78;;
32734;SDS011;19112;51.076;3.706;2023-02-04T13:51:49;15.93;;;5.60;;
32734;SDS011;19112;51.076;3.706;2023-02-04T13:54:15;20.23;;;6.10;;
32734;SDS011;19112;51.076;3.706;2023-02-04T13:56:41;17.45;;;5.95;;
32734;SDS011;19112;51.076;3.706;2023-02-04T13:59:06;18.30;;;6.30;;
32734;SDS011;19112;51.076;3.706;2023-02-04T14:01:32;16.83;;;6.05;;
32734;SDS011;19112;51.076;3.706;2023-02-04T14:03:58;23.45;;;5.90;;
32734;SDS011;19112;51.076;3.706;2023-02-04T14:06:24;17.30;;;6.25;;
32734;SDS011;19112;51.076;3.706;2023-02-04T14:08:57;19.95;;;6.20;;
32734;SDS011;19112;51.076;3.706;2023-02-04T14:11:24;22.02;;;6.00;;
32734;SDS011;19112;51.076;3.706;2023-02-04T14:13:50;19.63;;;5.97;;
32734;SDS011;19112;51.076;3.706;2023-02-04T14:16:16;14.48;;;5.43;;
32734;SDS011;19112;51.076;3.706;2023-02-04T14:18:41;19.02;;;6.38;;
32734;SDS011;19112;51.076;3.706;2023-02-04T14:21:07;18.88;;;6.07;;
32734;SDS011;19112;51.076;3.706;2023-02-04T14:23:33;18.23;;;5.65;;
32734;SDS011;19112;51.076;3.706;2023-02-04T14:25:59;17.95;;;5.80;;
32734;SDS011;19112;51.076;3.706;2023-02-04T14:28:24;15.30;;;6.07;;
32734;SDS011;19112;51.076;3.706;2023-02-04T14:30:50;22.42;;;6.50;;
32734;SDS011;19112;51.076;3.706;2023-02-04T14:33:18;16.40;;;5.70;;
32734;SDS011;19112;51.076;3.706;2023-02-04T14:35:45;19.63;;;6.15;;
32734;SDS011;19112;51.076;3.706;2023-02-04T14:38:11;19.42;;;6.30;;
32734;SDS011;19112;51.076;3.706;2023-02-04T14:40:40;23.95;;;6.38;;
32734;SDS011;19112;51.076;3.706;2023-02-04T14:43:07;18.80;;;5.68;;
32734;SDS011;19112;51.076;3.706;2023-02-04T14:45:35;16.58;;;4.90;;
32734;SDS011;19112;51.076;3.706;2023-02-04T14:48:02;19.83;;;6.25;;
32734;SDS011;19112;51.076;3.706;2023-02-04T14:50:28;20.63;;;6.40;;
32734;SDS011;19112;51.076;3.706;2023-02-04T14:52:55;14.57;;;5.85;;